Time;durP1;ratioP1;P1;durP2;ratioP2;P2;SDS_P1;SDS_P2;PMS_P1;PMS_P2;Temp;Humidity;BMP_temperature;BMP_pressure;BME280_temperature;BME280_humidity;BME280_pressure;Samples;Min_cycle;Max_cycle;Signal;HPM_P1;HPM_P2
2021/01/31 00:00:49;;;;;;;15.93;6.50;;;;;;;3.23;nan;94763.44;5003798;28;20224;-70
2021/01/31 00:03:20;;;;;;;13.95;7.43;;;;;;;3.16;nan;94733.91;4993702;28;20235;-70
2021/01/31 00:05:47;;;;;;;24.00;7.63;;;;;;;3.08;nan;94760.06;4994606;28;20707;-70
2021/01/31 00:08:17;;;;;;;21.70;7.25;;;;;;;3.15;nan;94729.69;4997965;28;20739;-68
2021/01/31 00:10:45;;;;;;;12.55;8.05;;;;;;;;;;4999743;28;20256;-70
2021/01/31 00:13:11;;;;;;;10.60;7.13;;;;;;;;;;4994346;28;20727;-70
2021/01/31 00:15:41;;;;;;;9.40;6.40;;;;;;;3.17;nan;94728.66;4994066;28;20262;-70
2021/01/31 00:18:08;;;;;;;10.05;7.00;;;;;;;;;;4995331;28;20703;-70
2021/01/31 00:20:36;;;;;;;12.95;7.70;;;;;;;;;;4994240;28;20259;-70
2021/01/31 00:23:03;;;;;;;28.30;7.00;;;;;;;;;;4994021;28;20666;-70
2021/01/31 00:25:36;;;;;;;9.25;6.05;;;;;;;;;;4994398;28;20261;-70
2021/01/31 00:28:04;;;;;;;13.02;6.30;;;;;;;3.26;nan;94753.78;4990890;28;20737;-70
2021/01/31 00:30:32;;;;;;;36.70;8.00;;;;;;;;;;4992218;28;20300;-70
2021/01/31 00:33:01;;;;;;;11.05;7.05;;;;;;;3.03;nan;94736.41;4992932;28;20291;-70
2021/01/31 00:35:29;;;;;;;7.57;6.15;;;;;;;;;;4992098;28;20747;-70
2021/01/31 00:37:56;;;;;;;10.23;5.70;;;;;;;;;;4994263;28;20248;-70
2021/01/31 00:40:24;;;;;;;10.95;5.70;;;;;;;3.23;nan;94753.16;5000776;28;20276;-70
2021/01/31 00:42:50;;;;;;;8.40;5.88;;;;;;;;;;5007928;28;20343;-71
2021/01/31 00:45:19;;;;;;;8.52;5.60;;;;;;;;;;4993644;28;20603;-71
2021/01/31 00:47:46;;;;;;;11.05;6.97;;;;;;;;;;4994824;28;20202;-71
2021/01/31 00:50:14;;;;;;;10.43;6.35;;;;;;;;;;4995287;28;20332;-71
2021/01/31 00:52:41;;;;;;;8.80;6.30;;;;;;;3.10;nan;94732.53;4994670;28;20229;-70
2021/01/31 00:55:08;;;;;;;8.15;5.50;;;;;;;;;;4995063;28;20236;-70
2021/01/31 00:57:35;;;;;;;9.90;6.47;;;;;;;3.24;nan;94709.34;4996194;28;20610;-71
2021/01/31 01:00:06;;;;;;;7.63;5.35;;;;;;;3.23;nan;94743.69;4993902;28;20757;-71
2021/01/31 01:02:34;;;;;;;8.70;5.88;;;;;;;3.26;nan;94737.53;4992581;28;20213;-71
2021/01/31 01:05:01;;;;;;;8.52;5.60;;;;;;;3.27;nan;94740.00;4993728;28;20613;-70
2021/01/31 01:07:28;;;;;;;9.73;5.72;;;;;;;3.33;nan;94713.94;4991135;28;20189;-70
2021/01/31 01:09:57;;;;;;;8.75;6.18;;;;;;;3.25;nan;94715.31;4994433;28;20289;-71
2021/01/31 01:12:24;;;;;;;7.57;5.55;;;;;;;3.33;nan;94755.06;4993687;28;20609;-70
2021/01/31 01:14:51;;;;;;;8.15;5.95;;;;;;;3.30;nan;94752.66;4993888;28;20252;-70
2021/01/31 01:17:18;;;;;;;7.63;5.25;;;;;;;3.27;nan;94765.72;4994059;28;20703;-71
2021/01/31 01:19:46;;;;;;;8.55;5.88;;;;;;;3.34;nan;94766.97;4993669;28;20287;-70
2021/01/31 01:22:13;;;;;;;10.30;6.00;;;;;;;3.41;nan;94768.25;4993126;28;20225;-71
2021/01/31 01:24:40;;;;;;;7.95;5.30;;;;;;;3.35;nan;94768.63;4993857;28;20587;-71
2021/01/31 01:27:07;;;;;;;8.02;5.78;;;;;;;3.42;nan;94769.88;5013344;28;20303;-72
2021/01/31 01:29:34;;;;;;;8.75;5.47;;;;;;;3.41;nan;94783.66;5017113;28;20228;-71
2021/01/31 01:32:03;;;;;;;8.13;6.13;;;;;;;3.39;nan;94775.19;5012155;28;20224;-71
2021/01/31 01:34:29;;;;;;;9.10;5.85;;;;;;;;;;5011506;28;20196;-71
2021/01/31 01:36:57;;;;;;;10.77;6.05;;;;;;;3.41;nan;94772.53;5013954;28;20259;-71
2021/01/31 01:39:24;;;;;;;10.60;6.50;;;;;;;3.41;nan;94757.97;5014298;28;20769;-71
2021/01/31 01:41:50;;;;;;;10.93;6.97;;;;;;;3.44;nan;94762.09;5012355;28;20315;-71
2021/01/31 01:44:17;;;;;;;10.18;7.03;;;;;;;3.38;nan;94772.75;5015767;28;20761;-72
2021/01/31 01:46:45;;;;;;;19.33;7.30;;;;;;;;;;5013989;28;20318;-71
2021/01/31 01:49:19;;;;;;;26.10;8.90;;;;;;;3.35;nan;94737.78;5014063;28;20704;-72
2021/01/31 01:51:50;;;;;;;13.80;7.72;;;;;;;3.37;nan;94777.06;5012134;28;20273;-71
2021/01/31 01:54:24;;;;;;;11.43;7.60;;;;;;;3.40;nan;94797.44;5012272;28;20692;-70
2021/01/31 01:56:55;;;;;;;24.13;8.40;;;;;;;3.48;nan;94768.66;5011782;28;20315;-70
2021/01/31 01:59:22;;;;;;;10.75;7.07;;;;;;;3.32;nan;94768.00;5012509;28;20323;-73
2021/01/31 02:01:59;;;;;;;18.17;7.97;;;;;;;3.36;nan;94770.28;5011022;28;20631;-70
2021/01/31 02:04:28;;;;;;;36.03;9.05;;;;;;;3.39;nan;94780.34;5015079;28;20214;-71
2021/01/31 02:06:55;;;;;;;13.70;8.65;;;;;;;3.33;nan;94775.63;5016716;28;20247;-71
2021/01/31 02:09:23;;;;;;;17.10;9.55;;;;;;;3.38;nan;94773.56;5018073;28;20224;-69
2021/01/31 02:11:53;;;;;;;72.60;12.60;;;;;;;3.41;nan;94775.97;5017896;28;20801;-72
2021/01/31 02:14:20;;;;;;;16.00;8.60;;;;;;;3.37;nan;94802.75;5017419;28;20245;-71
2021/01/31 02:16:55;;;;;;;15.85;8.68;;;;;;;3.37;nan;94756.50;5015631;28;20308;-70
2021/01/31 02:20:05;;;;;;;18.77;9.68;;;;;;;3.43;nan;94771.53;5016366;28;20762;-69
2021/01/31 02:22:41;;;;;;;14.90;9.15;;;;;;;;;;5014402;28;20247;-72
2021/01/31 02:25:48;;;;;;;42.53;10.55;;;;;;;3.44;nan;94783.47;5014240;28;20281;-71
2021/01/31 02:28:38;;;;;;;24.42;10.07;;;;;;;3.33;nan;94791.03;4914837;29;20642;-71
2021/01/31 02:31:24;;;;;;;118.10;15.18;;;;;;;;;;5015828;28;20758;-72
2021/01/31 02:33:55;;;;;;;35.30;9.15;;;;;;;3.23;nan;94795.09;5016873;28;20291;-70
2021/01/31 02:36:37;;;;;;;115.78;12.90;;;;;;;3.27;nan;94796.56;5017822;28;20290;-71
2021/01/31 02:39:19;;;;;;;24.92;9.05;;;;;;;3.27;nan;94799.13;5016137;28;20208;-72
2021/01/31 02:41:56;;;;;;;33.03;11.18;;;;;;;3.27;nan;94799.13;5016417;28;20259;-71
2021/01/31 02:44:27;;;;;;;52.92;10.02;;;;;;;3.26;nan;94800.06;5016819;28;20643;-72
2021/01/31 02:46:56;;;;;;;27.98;10.18;;;;;;;3.27;nan;94801.69;4998349;28;20239;-71
2021/01/31 02:49:30;;;;;;;88.07;12.23;;;;;;;3.24;nan;94812.16;4996635;28;20303;-71
2021/01/31 02:52:01;;;;;;;17.40;9.82;;;;;;;;;;4994850;28;20254;-70
2021/01/31 02:54:34;;;;;;;91.80;13.52;;;;;;;3.22;nan;94800.34;4995242;28;20700;-72
2021/01/31 02:57:05;;;;;;;93.15;13.73;;;;;;;3.19;nan;94793.66;4995153;28;20716;-70
2021/01/31 02:59:39;;;;;;;289.60;24.23;;;;;;;3.18;nan;94811.72;4995409;28;21007;-71
2021/01/31 03:02:12;;;;;;;27.60;10.05;;;;;;;3.16;nan;94805.88;4993988;28;20866;-70
2021/01/31 03:04:49;;;;;;;44.58;10.80;;;;;;;3.15;nan;94792.19;4996259;28;20231;-70
2021/01/31 03:07:21;;;;;;;195.00;17.48;;;;;;;3.01;nan;94815.31;5013562;28;20234;-70
2021/01/31 03:09:52;;;;;;;38.40;10.30;;;;;;;2.97;nan;94816.44;5014351;28;20694;-71
2021/01/31 03:12:24;;;;;;;36.28;11.75;;;;;;;2.90;nan;94817.75;5015384;28;20587;-70
2021/01/31 03:14:55;;;;;;;178.38;15.80;;;;;;;2.88;nan;94819.56;5015409;28;20284;-71
2021/01/31 03:17:28;;;;;;;43.92;12.52;;;;;;;2.84;nan;94809.56;5014224;28;20653;-71
2021/01/31 03:20:02;;;;;;;42.38;12.27;;;;;;;2.77;nan;94808.28;5018134;28;20227;-70
2021/01/31 03:22:36;;;;;;;80.47;14.30;;;;;;;2.82;nan;94804.53;5020907;28;20233;-69
2021/01/31 03:25:09;;;;;;;69.65;12.27;;;;;;;2.84;nan;94804.44;5013417;28;20707;-72
2021/01/31 03:27:38;;;;;;;110.00;13.88;;;;;;;2.90;nan;94797.19;5013241;28;20608;-72
2021/01/31 03:30:07;;;;;;;84.30;13.48;;;;;;;2.92;nan;94795.34;5015603;28;20315;-70
2021/01/31 03:32:39;;;;;;;29.50;13.40;;;;;;;;;;5017889;28;20526;-71
2021/01/31 03:35:10;;;;;;;42.17;12.85;;;;;;;2.86;nan;94749.47;5014130;28;20200;-71
2021/01/31 03:37:39;;;;;;;152.30;17.67;;;;;;;;;;5015715;28;20228;-70
2021/01/31 03:40:09;;;;;;;155.20;16.05;;;;;;;2.91;nan;94787.72;5016966;28;20233;-71
2021/01/31 03:42:36;;;;;;;111.13;14.90;;;;;;;2.95;nan;94790.00;5013292;28;20591;-69
2021/01/31 03:45:08;;;;;;;85.95;16.20;;;;;;;2.97;nan;94813.88;5014012;28;20287;-71
2021/01/31 03:47:38;;;;;;;86.07;13.75;;;;;;;;;;5015145;28;20208;-69
2021/01/31 03:50:08;;;;;;;182.05;18.10;;;;;;;2.87;nan;94830.75;5013405;28;20707;-69
2021/01/31 03:52:35;;;;;;;29.00;11.98;;;;;;;2.94;nan;94823.53;5014225;28;20813;-70
2021/01/31 03:55:01;;;;;;;43.10;12.30;;;;;;;;;;5013510;28;20826;-70
2021/01/31 03:57:33;;;;;;;40.33;13.57;;;;;;;3.08;nan;94842.31;5018129;28;20675;-71
2021/01/31 04:00:07;;;;;;;36.17;12.70;;;;;;;2.98;nan;94850.66;5010959;28;20229;-70
2021/01/31 04:02:38;;;;;;;91.75;15.10;;;;;;;;;;5014147;28;20233;-70
2021/01/31 04:05:08;;;;;;;39.95;12.05;;;;;;;2.98;nan;94856.63;5014515;28;20200;-70
2021/01/31 04:07:38;;;;;;;24.83;12.38;;;;;;;2.91;nan;94809.13;5015286;28;20239;-70
2021/01/31 04:10:08;;;;;;;24.13;12.50;;;;;;;2.96;nan;94865.34;5014690;28;20537;-71
2021/01/31 04:12:37;;;;;;;28.70;13.00;;;;;;;;;;5013976;28;20320;-70
2021/01/31 04:15:12;;;;;;;22.17;11.55;;;;;;;2.93;nan;94863.78;5012660;28;20421;-70
2021/01/31 04:17:42;;;;;;;106.93;18.08;;;;;;;2.94;nan;94865.44;5014030;28;20319;-70
2021/01/31 04:20:11;;;;;;;45.92;12.45;;;;;;;2.94;nan;94818.38;5013426;28;20860;-69
2021/01/31 04:22:38;;;;;;;19.60;12.15;;;;;;;2.95;nan;94882.50;5014873;28;20215;-69
2021/01/31 04:25:06;;;;;;;36.53;12.68;;;;;;;;;;5015419;28;20275;-71
2021/01/31 04:27:32;;;;;;;59.97;15.00;;;;;;;;;;5015950;28;20256;-71
2021/01/31 04:29:59;;;;;;;26.05;13.05;;;;;;;2.97;nan;94834.44;5015289;28;20619;-69
2021/01/31 04:32:26;;;;;;;97.53;15.13;;;;;;;;;;5014775;28;20225;-70
2021/01/31 04:34:53;;;;;;;24.52;12.68;;;;;;;2.89;nan;94846.94;5015892;28;20242;-71
2021/01/31 04:37:23;;;;;;;75.80;17.70;;;;;;;2.95;nan;94861.94;5016442;28;20224;-70
2021/01/31 04:39:50;;;;;;;59.75;13.75;;;;;;;;;;5012817;28;20742;-70
2021/01/31 04:42:19;;;;;;;22.02;13.57;;;;;;;2.97;nan;94855.00;5014109;28;20257;-70
2021/01/31 04:44:48;;;;;;;19.35;11.77;;;;;;;2.97;nan;94837.00;5015186;28;20623;-71
2021/01/31 04:47:23;;;;;;;25.73;13.20;;;;;;;2.97;nan;94855.00;5010893;28;20262;-70
2021/01/31 04:50:07;;;;;;;26.00;12.88;;;;;;;2.97;nan;94839.56;5011648;28;20287;-70
2021/01/31 04:52:43;;;;;;;62.95;13.07;;;;;;;;;;5011539;28;20285;-70
2021/01/31 04:55:26;;;;;;;23.63;11.60;;;;;;;2.91;nan;94845.09;5012866;28;20741;-70
2021/01/31 04:58:04;;;;;;;27.45;12.10;;;;;;;2.87;nan;94869.28;5013692;28;20230;-70
2021/01/31 05:00:40;;;;;;;20.67;11.32;;;;;;;2.93;nan;94832.97;5009309;28;20282;-71
2021/01/31 05:03:07;;;;;;;28.10;12.27;;;;;;;;;;5013157;28;20707;-70
2021/01/31 05:05:40;;;;;;;31.73;11.75;;;;;;;2.97;nan;94844.72;5014148;28;20273;-70
2021/01/31 05:08:17;;;;;;;39.08;11.25;;;;;;;2.96;nan;94848.22;5013081;28;20884;-70
2021/01/31 05:10:44;;;;;;;75.30;14.15;;;;;;;2.81;nan;94843.97;5013558;28;20226;-69
2021/01/31 05:13:25;;;;;;;41.97;12.10;;;;;;;2.71;nan;94837.75;5014098;28;20236;-70
2021/01/31 05:15:57;;;;;;;32.08;11.75;;;;;;;;;;5012874;28;20276;-70
2021/01/31 05:18:24;;;;;;;55.17;13.25;;;;;;;;;;5014458;28;20358;-70
2021/01/31 05:20:58;;;;;;;35.80;12.13;;;;;;;2.33;nan;94841.75;5012540;28;20289;-69
2021/01/31 05:23:26;;;;;;;65.93;13.35;;;;;;;2.06;nan;94792.03;5012580;28;20287;-69
2021/01/31 05:25:55;;;;;;;23.25;13.73;;;;;;;2.08;nan;94836.41;5011951;28;20244;-70
2021/01/31 05:28:23;;;;;;;46.67;12.10;;;;;;;2.24;nan;94832.03;5014689;28;20232;-70
2021/01/31 05:30:51;;;;;;;69.97;16.65;;;;;;;;;;5011485;28;20551;-70
2021/01/31 05:33:21;;;;;;;40.20;13.82;;;;;;;2.38;nan;94818.38;5012861;28;20242;-70
2021/01/31 05:35:50;;;;;;;68.82;16.02;;;;;;;2.42;nan;94835.28;5014676;28;20691;-71
2021/01/31 05:38:37;;;;;;;26.27;13.68;;;;;;;2.48;nan;94845.16;5012472;28;20307;-70
2021/01/31 05:41:27;;;;;;;23.38;12.88;;;;;;;2.59;nan;94841.03;5021056;28;20289;-70
2021/01/31 05:43:56;;;;;;;88.72;14.88;;;;;;;2.63;nan;94855.34;5017068;28;20671;-70
2021/01/31 05:46:24;;;;;;;35.50;12.05;;;;;;;;;;5016146;28;20651;-70
2021/01/31 05:48:51;;;;;;;31.42;12.13;;;;;;;2.73;nan;94860.78;5015907;28;20686;-70
2021/01/31 05:51:20;;;;;;;28.77;12.25;;;;;;;2.75;nan;94858.94;5018071;28;20322;-69
2021/01/31 05:53:47;;;;;;;34.88;12.38;;;;;;;2.72;nan;94859.94;5019280;28;20284;-69
2021/01/31 05:56:20;;;;;;;24.23;12.85;;;;;;;;;;5016015;28;20251;-70
2021/01/31 05:58:47;;;;;;;29.77;12.27;;;;;;;2.81;nan;94864.50;5018269;28;20606;-70
2021/01/31 06:01:15;;;;;;;50.63;13.88;;;;;;;2.85;nan;94870.28;5017778;28;20548;-70
2021/01/31 06:03:42;;;;;;;74.18;15.73;;;;;;;2.77;nan;94870.78;5017035;28;20189;-70
2021/01/31 06:06:13;;;;;;;30.65;12.48;;;;;;;2.77;nan;94882.78;5017329;28;20805;-70
2021/01/31 06:08:43;;;;;;;38.53;13.10;;;;;;;2.78;nan;94885.25;5017366;28;20738;-70
2021/01/31 06:11:20;;;;;;;46.85;12.43;;;;;;;2.84;nan;94890.03;5016094;28;20903;-69
2021/01/31 06:13:47;;;;;;;24.10;12.82;;;;;;;;;;5015604;28;20421;-69
2021/01/31 06:16:19;;;;;;;28.67;12.80;;;;;;;2.80;nan;94888.53;5017089;28;20683;-69
2021/01/31 06:18:52;;;;;;;21.25;12.48;;;;;;;2.84;nan;94894.31;5017437;28;20337;-70
2021/01/31 06:21:37;;;;;;;27.35;11.60;;;;;;;2.81;nan;94900.47;5014747;28;20248;-69
2021/01/31 06:24:20;;;;;;;28.10;12.82;;;;;;;2.88;nan;94900.94;5015722;28;20651;-70
2021/01/31 06:26:47;;;;;;;26.48;11.68;;;;;;;2.90;nan;94905.09;5018166;28;20619;-69
2021/01/31 06:29:21;;;;;;;40.95;12.02;;;;;;;2.78;nan;94900.66;5015403;28;20243;-69
2021/01/31 06:31:53;;;;;;;24.58;12.38;;;;;;;2.66;nan;94926.25;5016900;28;20252;-69
2021/01/31 06:34:20;;;;;;;51.50;13.80;;;;;;;2.63;nan;94847.66;5015077;28;20766;-70
2021/01/31 06:36:52;;;;;;;25.25;13.18;;;;;;;;;;5015413;28;20311;-69
2021/01/31 06:39:31;;;;;;;21.00;12.68;;;;;;;;;;5013019;28;20551;-69
2021/01/31 06:42:06;;;;;;;24.30;13.52;;;;;;;;;;5013630;28;20677;-69
2021/01/31 06:44:43;;;;;;;24.35;12.43;;;;;;;2.73;nan;94881.31;5015136;28;20305;-69
2021/01/31 06:47:27;;;;;;;23.27;12.98;;;;;;;2.83;nan;94902.97;5016113;28;20303;-69
2021/01/31 06:50:02;;;;;;;24.73;13.18;;;;;;;2.92;nan;94923.78;5017072;28;20200;-69
2021/01/31 06:52:43;;;;;;;24.40;12.75;;;;;;;2.90;nan;94911.94;5015303;28;20682;-69
2021/01/31 06:55:17;;;;;;;22.13;12.45;;;;;;;;;;5016120;28;20811;-70
2021/01/31 06:58:20;;;;;;;33.10;12.95;;;;;;;2.92;nan;94912.69;5017029;28;20207;-69
2021/01/31 07:01:16;;;;;;;26.67;13.20;;;;;;;2.94;nan;94921.94;5016302;28;20306;-69
2021/01/31 07:04:15;;;;;;;24.23;13.43;;;;;;;3.03;nan;94920.59;5019246;28;20212;-69
2021/01/31 07:07:08;;;;;;;26.02;12.77;;;;;;;3.01;nan;94943.00;5015354;28;20247;-69
2021/01/31 07:09:51;;;;;;;23.42;13.52;;;;;;;3.00;nan;94957.56;5013996;28;20258;-70
2021/01/31 07:12:24;;;;;;;23.58;13.32;;;;;;;2.97;nan;94939.78;5014054;28;20736;-70
2021/01/31 07:14:58;;;;;;;24.75;13.18;;;;;;;3.01;nan;94938.66;5014214;28;20319;-69
2021/01/31 07:17:39;;;;;;;21.83;13.25;;;;;;;3.03;nan;94936.00;5015071;28;20283;-69
2021/01/31 07:20:17;;;;;;;24.17;11.85;;;;;;;2.92;nan;94944.34;5014830;28;20682;-69
2021/01/31 07:22:49;;;;;;;21.08;11.60;;;;;;;2.87;nan;94966.91;5016887;28;20517;-69
2021/01/31 07:25:20;;;;;;;21.00;12.43;;;;;;;2.82;nan;94947.53;5013342;28;20303;-70
2021/01/31 07:27:53;;;;;;;21.00;12.80;;;;;;;2.79;nan;94958.81;5016525;28;20229;-69
2021/01/31 07:30:22;;;;;;;22.55;13.02;;;;;;;;;;5014212;28;20579;-69
2021/01/31 07:33:02;;;;;;;21.65;12.43;;;;;;;2.82;nan;94932.97;5014268;28;20712;-69
2021/01/31 07:35:37;;;;;;;25.88;12.02;;;;;;;2.84;nan;94955.97;5016363;28;20274;-70
2021/01/31 07:38:11;;;;;;;21.02;12.00;;;;;;;2.82;nan;94957.81;5014383;28;20226;-70
2021/01/31 07:40:40;;;;;;;22.80;12.70;;;;;;;2.87;nan;94946.34;5014037;28;20703;-69
2021/01/31 07:43:10;;;;;;;35.22;12.73;;;;;;;;;;5014740;28;20312;-69
2021/01/31 07:45:37;;;;;;;23.33;13.05;;;;;;;2.85;nan;94962.75;5014863;28;20785;-69
2021/01/31 07:48:32;;;;;;;18.52;11.32;;;;;;;2.91;nan;94958.13;5015133;28;20750;-69
2021/01/31 07:51:00;;;;;;;20.10;11.15;;;;;;;;;;5011840;28;20287;-69
2021/01/31 07:53:31;;;;;;;20.95;12.38;;;;;;;2.82;nan;94953.53;5016570;28;20570;-70
2021/01/31 07:56:28;;;;;;;25.17;13.65;;;;;;;2.80;nan;94952.75;5015554;28;20610;-70
2021/01/31 07:58:57;;;;;;;22.55;12.18;;;;;;;2.84;nan;94941.41;5014095;28;20786;-70
2021/01/31 08:01:48;;;;;;;23.67;12.20;;;;;;;2.82;nan;94958.66;5014959;28;20652;-70
2021/01/31 08:04:26;;;;;;;23.65;11.77;;;;;;;2.80;nan;94957.91;5012542;28;20303;-70
2021/01/31 08:06:55;;;;;;;19.55;11.32;;;;;;;2.88;nan;94967.75;5013878;28;20327;-70
2021/01/31 08:09:41;;;;;;;17.58;10.07;;;;;;;;;;5015153;28;20289;-70
2021/01/31 08:12:09;;;;;;;18.45;10.60;;;;;;;2.99;nan;94939.66;5015861;28;20318;-70
2021/01/31 08:15:08;;;;;;;28.83;15.02;;;;;;;2.94;nan;94968.19;5015647;28;20562;-70
2021/01/31 08:17:57;;;;;;;20.58;11.40;;;;;;;3.01;nan;94958.41;5013077;28;20252;-69
2021/01/31 08:20:51;;;;;;;21.05;10.55;;;;;;;3.01;nan;94954.06;5013400;28;20662;-70
2021/01/31 08:23:43;;;;;;;25.67;12.68;;;;;;;3.03;nan;94952.22;5010957;28;20654;-69
2021/01/31 08:26:50;;;;;;;18.08;11.10;;;;;;;3.01;nan;94969.50;4991902;28;20226;-70
2021/01/31 08:29:21;;;;;;;22.77;11.70;;;;;;;3.05;nan;94975.28;5013434;28;20684;-70
2021/01/31 08:32:15;;;;;;;21.20;11.20;;;;;;;3.08;nan;94985.41;5015405;28;20297;-70
2021/01/31 08:35:18;;;;;;;21.23;11.85;;;;;;;3.10;nan;94984.34;4961086;28;20530;-71
2021/01/31 08:37:51;;;;;;;20.35;11.60;;;;;;;2.87;nan;94972.03;4993173;28;20639;-69
2021/01/31 08:40:24;;;;;;;21.77;11.52;;;;;;;2.95;nan;94982.69;4997104;28;20323;-69
2021/01/31 08:42:54;;;;;;;21.10;11.73;;;;;;;3.10;nan;94988.69;5016373;28;20281;-70
2021/01/31 08:45:21;;;;;;;19.63;11.30;;;;;;;;;;5015412;28;20246;-69
2021/01/31 08:47:48;;;;;;;22.67;12.73;;;;;;;3.15;nan;94977.22;5015759;28;20283;-70
2021/01/31 08:50:19;;;;;;;22.48;12.52;;;;;;;3.15;nan;94986.69;5013496;28;20255;-70
2021/01/31 08:52:47;;;;;;;23.63;12.10;;;;;;;3.22;nan;94987.97;5014170;28;20255;-70
2021/01/31 08:55:22;;;;;;;22.55;11.98;;;;;;;;;;5015048;28;20684;-69
2021/01/31 08:57:56;;;;;;;19.27;11.07;;;;;;;2.94;nan;94957.91;5014136;28;20821;-69
2021/01/31 09:00:26;;;;;;;21.70;11.68;;;;;;;3.06;nan;94993.19;5015283;28;20277;-70
2021/01/31 09:02:53;;;;;;;22.58;12.32;;;;;;;3.07;nan;94988.84;5014698;28;20701;-69
2021/01/31 09:05:21;;;;;;;39.42;11.82;;;;;;;3.13;nan;94963.63;5014002;28;20304;-70
2021/01/31 09:07:50;;;;;;;20.02;11.80;;;;;;;;;;5014771;28;20287;-70
2021/01/31 09:10:27;;;;;;;24.45;12.00;;;;;;;3.08;nan;94944.28;5010177;28;20249;-70
2021/01/31 09:13:07;;;;;;;21.65;12.15;;;;;;;3.15;nan;94995.19;5013878;28;20252;-70
2021/01/31 09:15:36;;;;;;;21.42;12.32;;;;;;;3.27;nan;95007.34;5013488;28;20795;-70
2021/01/31 09:18:14;;;;;;;17.27;10.10;;;;;;;3.30;nan;95006.34;5013990;28;20820;-70
2021/01/31 09:20:42;;;;;;;26.35;13.98;;;;;;;3.33;nan;95006.97;5012680;28;20747;-70
2021/01/31 09:23:19;;;;;;;21.35;11.50;;;;;;;;;;5014992;28;20197;-70
2021/01/31 09:25:47;;;;;;;20.85;11.48;;;;;;;;;;5013824;28;20251;-70
2021/01/31 09:28:18;;;;;;;20.73;11.40;;;;;;;;;;5015249;28;20248;-70
2021/01/31 09:30:46;;;;;;;23.27;12.30;;;;;;;3.40;nan;94987.69;5013653;28;20243;-69
2021/01/31 09:33:23;;;;;;;21.83;11.75;;;;;;;3.38;nan;95019.56;5014190;28;20236;-70
2021/01/31 09:35:50;;;;;;;18.58;10.82;;;;;;;3.42;nan;95042.41;5012072;28;20428;-70
2021/01/31 09:38:22;;;;;;;18.00;11.40;;;;;;;3.43;nan;95020.94;5012128;28;20641;-71
2021/01/31 09:40:53;;;;;;;30.65;12.80;;;;;;;3.52;nan;95022.13;5014156;28;20295;-70
2021/01/31 09:43:22;;;;;;;23.17;12.23;;;;;;;3.35;nan;95024.88;5013006;28;20196;-70
2021/01/31 09:45:52;;;;;;;23.67;11.65;;;;;;;3.35;nan;95046.28;5010733;28;20307;-70
2021/01/31 09:48:20;;;;;;;16.40;10.50;;;;;;;;;;5013077;28;20569;-70
2021/01/31 09:50:51;;;;;;;25.05;12.10;;;;;;;;;;5014516;28;20345;-70
2021/01/31 09:53:27;;;;;;;24.25;13.05;;;;;;;3.44;nan;95025.16;5010883;28;20489;-70
2021/01/31 09:55:58;;;;;;;19.80;11.68;;;;;;;3.44;nan;95019.19;5015219;28;20392;-70
2021/01/31 09:58:31;;;;;;;27.80;13.07;;;;;;;21.40;100.00;108079.47;5013797;28;20927;-70
2021/01/31 10:01:09;;;;;;;66.70;32.10;;;;;;;3.07;nan;95017.13;5012841;28;20239;-70
2021/01/31 10:03:35;;;;;;;27.15;13.38;;;;;;;;;;5012110;28;20232;-70
2021/01/31 10:06:13;;;;;;;20.40;11.75;;;;;;;;;;5013637;28;20623;-70
2021/01/31 10:08:49;;;;;;;29.05;12.85;;;;;;;3.17;nan;95025.97;5011815;28;20577;-70
2021/01/31 10:11:31;;;;;;;23.10;11.98;;;;;;;2.96;nan;95007.50;5010519;28;20296;-70
2021/01/31 10:13:59;;;;;;;21.17;11.10;;;;;;;3.01;nan;95025.22;5012189;28;20307;-70
2021/01/31 10:16:29;;;;;;;22.83;13.30;;;;;;;2.59;nan;94941.16;5011463;28;20228;-70
2021/01/31 10:19:10;;;;;;;23.58;13.30;;;;;;;2.91;nan;94988.94;5012586;28;20824;-70
2021/01/31 10:21:38;;;;;;;25.25;13.68;;;;;;;2.99;nan;94991.88;5010214;28;20667;-70
2021/01/31 10:24:17;;;;;;;23.73;13.23;;;;;;;3.01;nan;94997.75;5011949;28;20632;-70
2021/01/31 10:26:46;;;;;;;22.67;12.13;;;;;;;2.96;nan;94997.22;5012695;28;20571;-70
2021/01/31 10:29:22;;;;;;;27.80;13.70;;;;;;;2.99;nan;95001.31;5016897;28;20229;-70
2021/01/31 10:31:49;;;;;;;21.77;12.60;;;;;;;;;;5015167;28;20610;-70
2021/01/31 10:34:40;;;;;;;25.05;12.68;;;;;;;2.82;nan;95010.03;5014541;28;20722;-70
2021/01/31 10:37:15;;;;;;;25.27;14.10;;;;;;;3.09;nan;94946.72;5015582;28;20669;-70
2021/01/31 10:39:42;;;;;;;25.00;13.40;;;;;;;;;;5016406;28;20544;-70
2021/01/31 10:42:13;;;;;;;25.05;13.52;;;;;;;3.54;nan;95020.28;5015010;28;20296;-70
2021/01/31 10:44:41;;;;;;;19.48;12.52;;;;;;;3.42;nan;95026.16;5015102;28;20220;-70
2021/01/31 10:47:11;;;;;;;18.48;11.05;;;;;;;3.14;nan;94997.84;5014311;28;20682;-70
2021/01/31 10:49:38;;;;;;;25.00;11.10;;;;;;;3.24;nan;95022.94;5014751;28;20194;-70
2021/01/31 10:52:04;;;;;;;26.33;12.43;;;;;;;3.30;nan;94996.88;5015467;28;20694;-70
2021/01/31 10:54:31;;;;;;;19.30;11.27;;;;;;;3.03;nan;95008.75;5012767;28;20323;-70
2021/01/31 10:56:58;;;;;;;22.48;12.30;;;;;;;3.03;nan;94988.19;5016418;28;20663;-70
2021/01/31 10:59:26;;;;;;;20.50;11.45;;;;;;;2.80;nan;95005.88;5015824;28;20212;-71
2021/01/31 11:01:52;;;;;;;20.23;12.05;;;;;;;;;;5013895;28;20750;-70
2021/01/31 11:04:19;;;;;;;22.77;12.57;;;;;;;2.93;nan;94976.81;5015479;28;20580;-70
2021/01/31 11:06:47;;;;;;;27.33;14.57;;;;;;;3.26;nan;94949.13;5014363;28;20302;-70
2021/01/31 11:09:15;;;;;;;28.27;14.27;;;;;;;3.44;nan;94988.34;5013682;28;20205;-70
2021/01/31 11:11:43;;;;;;;29.80;14.02;;;;;;;-142.13;100.00;78276.97;5014711;28;20598;-70
2021/01/31 11:14:10;;;;;;;20.88;11.82;;;;;;;3.54;nan;94985.09;5015012;28;20224;-70
2021/01/31 11:16:38;;;;;;;21.55;12.07;;;;;;;;;;5015057;28;20248;-70
2021/01/31 11:19:05;;;;;;;26.92;12.43;;;;;;;3.34;nan;94982.09;5014838;28;20782;-72
2021/01/31 11:21:31;;;;;;;23.23;13.70;;;;;;;3.64;nan;94986.22;5012433;28;20225;-71
2021/01/31 11:23:58;;;;;;;24.85;14.30;;;;;;;3.63;nan;94984.56;5014631;28;20285;-70
2021/01/31 11:26:25;;;;;;;23.05;13.15;;;;;;;3.86;nan;94981.41;5014206;28;20252;-70
2021/01/31 11:28:53;;;;;;;23.50;13.50;;;;;;;4.00;nan;94983.94;5015101;28;20682;-70
2021/01/31 11:31:21;;;;;;;21.30;12.60;;;;;;;4.15;nan;94970.09;5014585;28;20325;-70
2021/01/31 11:33:50;;;;;;;22.60;12.40;;;;;;;4.26;nan;94981.38;5016961;28;20246;-71
2021/01/31 11:36:18;;;;;;;23.17;13.13;;;;;;;4.31;nan;94989.66;5011693;28;20314;-71
2021/01/31 11:38:44;;;;;;;22.10;11.27;;;;;;;4.27;nan;94935.84;5014805;28;20261;-70
2021/01/31 11:41:11;;;;;;;22.17;13.18;;;;;;;4.00;nan;94933.28;5014084;28;20227;-70
2021/01/31 11:43:38;;;;;;;18.42;10.88;;;;;;;3.76;nan;94970.00;5014409;28;20725;-70
2021/01/31 11:46:05;;;;;;;27.95;13.95;;;;;;;3.57;nan;94959.22;5014332;28;20652;-70
2021/01/31 11:48:32;;;;;;;28.77;15.23;;;;;;;;;;5015217;28;20753;-70
2021/01/31 11:50:59;;;;;;;25.02;13.05;;;;;;;;;;5011457;28;20658;-70
2021/01/31 11:53:26;;;;;;;24.83;13.73;;;;;;;3.69;nan;94973.91;5014107;28;20251;-70
2021/01/31 11:55:53;;;;;;;22.00;12.73;;;;;;;3.82;nan;94974.78;5013152;28;20768;-70
2021/01/31 11:58:20;;;;;;;22.02;12.75;;;;;;;4.08;nan;94971.41;5015149;28;20303;-70
2021/01/31 12:00:50;;;;;;;19.95;12.23;;;;;;;;;;5013954;28;20734;-70
2021/01/31 12:03:17;;;;;;;23.15;12.80;;;;;;;3.82;nan;94964.47;5014068;28;20228;-70
2021/01/31 12:05:43;;;;;;;25.52;12.98;;;;;;;;;;5016099;28;20311;-70
2021/01/31 12:08:14;;;;;;;26.58;12.95;;;;;;;4.05;nan;94915.81;5015714;28;20211;-71
2021/01/31 12:10:41;;;;;;;26.20;14.00;;;;;;;4.18;nan;94941.59;5014495;28;20225;-71
2021/01/31 12:13:08;;;;;;;18.30;11.93;;;;;;;4.33;nan;94956.88;5016169;28;20318;-71
2021/01/31 12:15:39;;;;;;;19.55;12.15;;;;;;;4.44;nan;94940.75;5014582;28;20228;-71
2021/01/31 12:18:06;;;;;;;21.50;14.25;;;;;;;4.60;nan;94938.81;5014254;28;20732;-71
2021/01/31 12:20:33;;;;;;;19.55;11.60;;;;;;;4.60;nan;94934.50;5014227;28;20666;-70
2021/01/31 12:23:00;;;;;;;26.80;11.30;;;;;;;4.34;nan;94926.78;5012763;28;20200;-70
2021/01/31 12:25:28;;;;;;;25.50;13.07;;;;;;;4.29;nan;94934.00;5013462;28;20327;-71
2021/01/31 12:27:58;;;;;;;24.33;11.98;;;;;;;4.19;nan;94963.81;5016714;28;20286;-71
2021/01/31 12:30:28;;;;;;;21.60;12.55;;;;;;;4.35;nan;94928.47;5014074;28;20623;-71
2021/01/31 12:32:55;;;;;;;32.88;15.95;;;;;;;;;;5014239;28;20654;-71
2021/01/31 12:35:22;;;;;;;22.65;13.35;;;;;;;4.23;nan;94913.81;5013488;28;20315;-71